sensor_id;sensor_type;location;lat;lon;timestamp;P1;durP1;ratioP1;P2;durP2;ratioP2
26951;SDS011;14507;52.418;13.398;2023-03-07T00:01:48;16.52;;;8.90;;
26951;SDS011;14507;52.418;13.398;2023-03-07T00:04:15;17.88;;;9.15;;
26951;SDS011;14507;52.418;13.398;2023-03-07T00:06:40;18.13;;;8.50;;
26951;SDS011;14507;52.418;13.398;2023-03-07T00:09:06;16.73;;;8.98;;
26951;SDS011;14507;52.418;13.398;2023-03-07T00:11:32;18.17;;;9.05;;
26951;SDS011;14507;52.418;13.398;2023-03-07T00:13:57;16.42;;;9.50;;
26951;SDS011;14507;52.418;13.398;2023-03-07T00:16:23;21.00;;;9.20;;
26951;SDS011;14507;52.418;13.398;2023-03-07T00:18:49;16.60;;;9.10;;
26951;SDS011;14507;52.418;13.398;2023-03-07T00:21:16;17.17;;;9.13;;
26951;SDS011;14507;52.418;13.398;2023-03-07T00:23:44;18.73;;;9.95;;
26951;SDS011;14507;52.418;13.398;2023-03-07T00:26:17;21.30;;;10.65;;
26951;SDS011;14507;52.418;13.398;2023-03-07T00:28:45;19.42;;;10.90;;
26951;SDS011;14507;52.418;13.398;2023-03-07T00:31:11;22.07;;;11.27;;
26951;SDS011;14507;52.418;13.398;2023-03-07T00:33:38;27.33;;;11.00;;
26951;SDS011;14507;52.418;13.398;2023-03-07T00:36:09;24.20;;;10.63;;
26951;SDS011;14507;52.418;13.398;2023-03-07T00:38:36;19.70;;;10.88;;
26951;SDS011;14507;52.418;13.398;2023-03-07T00:41:04;23.65;;;12.05;;
26951;SDS011;14507;52.418;13.398;2023-03-07T00:43:31;22.63;;;10.95;;
26951;SDS011;14507;52.418;13.398;2023-03-07T00:45:58;19.70;;;11.52;;
26951;SDS011;14507;52.418;13.398;2023-03-07T00:48:24;22.52;;;11.70;;
26951;SDS011;14507;52.418;13.398;2023-03-07T00:50:51;25.13;;;11.80;;
26951;SDS011;14507;52.418;13.398;2023-03-07T00:53:17;27.60;;;12.77;;
26951;SDS011;14507;52.418;13.398;2023-03-07T00:58:42;25.20;;;12.80;;
26951;SDS011;14507;52.418;13.398;2023-03-07T01:01:09;27.02;;;12.73;;
26951;SDS011;14507;52.418;13.398;2023-03-07T01:03:36;26.50;;;13.35;;
26951;SDS011;14507;52.418;13.398;2023-03-07T01:06:03;25.52;;;13.98;;
26951;SDS011;14507;52.418;13.398;2023-03-07T01:08:33;29.88;;;14.10;;
26951;SDS011;14507;52.418;13.398;2023-03-07T01:11:00;28.02;;;14.38;;
26951;SDS011;14507;52.418;13.398;2023-03-07T01:13:26;50.65;;;15.50;;
26951;SDS011;14507;52.418;13.398;2023-03-07T01:15:53;28.60;;;14.73;;
26951;SDS011;14507;52.418;13.398;2023-03-07T01:18:18;28.10;;;14.23;;
26951;SDS011;14507;52.418;13.398;2023-03-07T01:20:44;34.35;;;14.18;;
26951;SDS011;14507;52.418;13.398;2023-03-07T01:23:10;31.42;;;15.75;;
26951;SDS011;14507;52.418;13.398;2023-03-07T01:25:36;28.95;;;15.50;;
26951;SDS011;14507;52.418;13.398;2023-03-07T01:28:06;29.70;;;15.20;;
26951;SDS011;14507;52.418;13.398;2023-03-07T01:30:33;32.28;;;16.45;;
26951;SDS011;14507;52.418;13.398;2023-03-07T01:32:59;30.73;;;15.85;;
26951;SDS011;14507;52.418;13.398;2023-03-07T01:35:26;31.05;;;16.50;;
26951;SDS011;14507;52.418;13.398;2023-03-07T01:37:52;33.53;;;16.77;;
26951;SDS011;14507;52.418;13.398;2023-03-07T01:40:19;34.70;;;17.02;;
26951;SDS011;14507;52.418;13.398;2023-03-07T01:42:46;39.55;;;18.50;;
26951;SDS011;14507;52.418;13.398;2023-03-07T01:47:38;37.30;;;18.52;;
26951;SDS011;14507;52.418;13.398;2023-03-07T01:50:05;39.65;;;19.67;;
26951;SDS011;14507;52.418;13.398;2023-03-07T01:52:37;39.38;;;19.08;;
26951;SDS011;14507;52.418;13.398;2023-03-07T01:55:10;41.90;;;20.45;;
26951;SDS011;14507;52.418;13.398;2023-03-07T01:57:38;42.53;;;20.38;;
26951;SDS011;14507;52.418;13.398;2023-03-07T02:00:07;45.08;;;21.15;;
26951;SDS011;14507;52.418;13.398;2023-03-07T02:02:36;43.47;;;21.27;;
26951;SDS011;14507;52.418;13.398;2023-03-07T02:05:13;44.45;;;21.00;;
26951;SDS011;14507;52.418;13.398;2023-03-07T02:07:48;50.13;;;24.02;;
26951;SDS011;14507;52.418;13.398;2023-03-07T02:10:15;52.80;;;24.20;;
26951;SDS011;14507;52.418;13.398;2023-03-07T02:12:43;54.88;;;25.65;;
26951;SDS011;14507;52.418;13.398;2023-03-07T02:15:09;52.65;;;24.27;;
26951;SDS011;14507;52.418;13.398;2023-03-07T02:17:37;54.55;;;26.98;;
26951;SDS011;14507;52.418;13.398;2023-03-07T02:22:45;57.45;;;26.52;;
26951;SDS011;14507;52.418;13.398;2023-03-07T02:25:31;55.85;;;26.23;;
26951;SDS011;14507;52.418;13.398;2023-03-07T02:28:04;53.88;;;25.65;;
26951;SDS011;14507;52.418;13.398;2023-03-07T02:30:32;60.00;;;26.67;;
26951;SDS011;14507;52.418;13.398;2023-03-07T02:33:00;62.63;;;28.63;;
26951;SDS011;14507;52.418;13.398;2023-03-07T02:35:25;60.05;;;27.65;;
26951;SDS011;14507;52.418;13.398;2023-03-07T02:37:52;58.65;;;27.38;;
26951;SDS011;14507;52.418;13.398;2023-03-07T02:40:22;63.17;;;28.33;;
26951;SDS011;14507;52.418;13.398;2023-03-07T02:42:49;56.75;;;26.52;;
26951;SDS011;14507;52.418;13.398;2023-03-07T02:45:18;59.90;;;26.38;;
26951;SDS011;14507;52.418;13.398;2023-03-07T02:47:44;61.65;;;28.52;;
26951;SDS011;14507;52.418;13.398;2023-03-07T02:50:11;56.40;;;26.25;;
26951;SDS011;14507;52.418;13.398;2023-03-07T02:52:38;62.35;;;28.42;;
26951;SDS011;14507;52.418;13.398;2023-03-07T02:55:04;63.35;;;28.25;;
26951;SDS011;14507;52.418;13.398;2023-03-07T02:57:30;57.83;;;27.95;;
26951;SDS011;14507;52.418;13.398;2023-03-07T02:59:55;61.60;;;27.73;;
26951;SDS011;14507;52.418;13.398;2023-03-07T03:02:21;63.00;;;28.50;;
26951;SDS011;14507;52.418;13.398;2023-03-07T03:04:47;59.95;;;28.08;;
26951;SDS011;14507;52.418;13.398;2023-03-07T03:07:12;62.03;;;27.48;;
26951;SDS011;14507;52.418;13.398;2023-03-07T03:09:38;56.55;;;26.67;;
26951;SDS011;14507;52.418;13.398;2023-03-07T03:12:04;59.92;;;27.30;;
26951;SDS011;14507;52.418;13.398;2023-03-07T03:14:30;57.63;;;26.80;;
26951;SDS011;14507;52.418;13.398;2023-03-07T03:16:56;56.85;;;26.67;;
26951;SDS011;14507;52.418;13.398;2023-03-07T03:19:22;56.63;;;26.13;;
26951;SDS011;14507;52.418;13.398;2023-03-07T03:21:47;57.10;;;26.13;;
26951;SDS011;14507;52.418;13.398;2023-03-07T03:24:13;58.80;;;27.33;;
26951;SDS011;14507;52.418;13.398;2023-03-07T03:26:39;59.42;;;27.33;;
26951;SDS011;14507;52.418;13.398;2023-03-07T03:29:05;61.30;;;27.80;;
26951;SDS011;14507;52.418;13.398;2023-03-07T03:31:31;63.20;;;28.13;;
26951;SDS011;14507;52.418;13.398;2023-03-07T03:33:57;62.65;;;28.10;;
26951;SDS011;14507;52.418;13.398;2023-03-07T03:36:24;56.40;;;27.55;;
26951;SDS011;14507;52.418;13.398;2023-03-07T03:38:51;60.05;;;27.70;;
26951;SDS011;14507;52.418;13.398;2023-03-07T03:41:18;65.10;;;27.98;;
26951;SDS011;14507;52.418;13.398;2023-03-07T03:43:43;60.97;;;28.58;;
26951;SDS011;14507;52.418;13.398;2023-03-07T03:46:09;61.25;;;27.52;;
26951;SDS011;14507;52.418;13.398;2023-03-07T03:48:35;65.28;;;28.67;;
26951;SDS011;14507;52.418;13.398;2023-03-07T03:51:08;66.97;;;27.15;;
26951;SDS011;14507;52.418;13.398;2023-03-07T03:53:37;59.78;;;26.85;;
26951;SDS011;14507;52.418;13.398;2023-03-07T03:56:04;61.60;;;27.75;;
26951;SDS011;14507;52.418;13.398;2023-03-07T03:58:34;61.92;;;27.20;;
26951;SDS011;14507;52.418;13.398;2023-03-07T04:01:00;65.47;;;28.30;;
26951;SDS011;14507;52.418;13.398;2023-03-07T04:03:33;61.78;;;26.85;;
26951;SDS011;14507;52.418;13.398;2023-03-07T04:06:01;59.97;;;27.33;;
26951;SDS011;14507;52.418;13.398;2023-03-07T04:08:28;63.33;;;27.92;;
26951;SDS011;14507;52.418;13.398;2023-03-07T04:10:54;64.45;;;28.55;;
26951;SDS011;14507;52.418;13.398;2023-03-07T04:13:20;62.65;;;27.33;;
26951;SDS011;14507;52.418;13.398;2023-03-07T04:15:45;62.25;;;27.33;;
26951;SDS011;14507;52.418;13.398;2023-03-07T04:18:11;60.67;;;26.17;;
26951;SDS011;14507;52.418;13.398;2023-03-07T04:20:36;59.55;;;26.80;;
26951;SDS011;14507;52.418;13.398;2023-03-07T04:23:02;61.00;;;27.15;;
26951;SDS011;14507;52.418;13.398;2023-03-07T04:25:28;56.40;;;26.33;;
26951;SDS011;14507;52.418;13.398;2023-03-07T04:27:53;62.08;;;26.33;;
26951;SDS011;14507;52.418;13.398;2023-03-07T04:30:19;55.03;;;24.55;;
26951;SDS011;14507;52.418;13.398;2023-03-07T04:32:44;59.95;;;25.55;;
26951;SDS011;14507;52.418;13.398;2023-03-07T04:35:10;62.20;;;26.42;;
26951;SDS011;14507;52.418;13.398;2023-03-07T04:37:36;55.00;;;25.10;;
26951;SDS011;14507;52.418;13.398;2023-03-07T04:40:01;58.38;;;25.52;;
26951;SDS011;14507;52.418;13.398;2023-03-07T04:42:27;54.42;;;25.30;;
26951;SDS011;14507;52.418;13.398;2023-03-07T04:44:53;61.47;;;26.15;;
26951;SDS011;14507;52.418;13.398;2023-03-07T04:47:19;57.95;;;24.58;;
26951;SDS011;14507;52.418;13.398;2023-03-07T04:49:44;52.30;;;24.35;;
26951;SDS011;14507;52.418;13.398;2023-03-07T04:52:10;52.83;;;24.35;;
26951;SDS011;14507;52.418;13.398;2023-03-07T04:54:35;58.42;;;25.60;;
26951;SDS011;14507;52.418;13.398;2023-03-07T04:57:02;57.25;;;25.02;;
26951;SDS011;14507;52.418;13.398;2023-03-07T04:59:28;54.58;;;24.55;;
26951;SDS011;14507;52.418;13.398;2023-03-07T05:01:54;59.55;;;25.77;;
26951;SDS011;14507;52.418;13.398;2023-03-07T05:04:19;50.70;;;25.65;;
26951;SDS011;14507;52.418;13.398;2023-03-07T05:06:45;55.97;;;25.55;;
26951;SDS011;14507;52.418;13.398;2023-03-07T05:09:10;56.85;;;25.80;;
26951;SDS011;14507;52.418;13.398;2023-03-07T05:11:36;57.10;;;25.88;;
26951;SDS011;14507;52.418;13.398;2023-03-07T05:14:02;56.85;;;26.00;;
26951;SDS011;14507;52.418;13.398;2023-03-07T05:16:27;58.88;;;26.23;;
26951;SDS011;14507;52.418;13.398;2023-03-07T05:18:53;54.17;;;25.08;;
26951;SDS011;14507;52.418;13.398;2023-03-07T05:21:18;57.33;;;27.55;;
26951;SDS011;14507;52.418;13.398;2023-03-07T05:23:44;57.70;;;26.17;;
26951;SDS011;14507;52.418;13.398;2023-03-07T05:26:10;58.17;;;25.92;;
26951;SDS011;14507;52.418;13.398;2023-03-07T05:28:35;55.40;;;25.38;;
26951;SDS011;14507;52.418;13.398;2023-03-07T05:31:01;58.67;;;26.83;;
26951;SDS011;14507;52.418;13.398;2023-03-07T05:33:27;56.42;;;26.23;;
26951;SDS011;14507;52.418;13.398;2023-03-07T05:35:52;62.00;;;26.83;;
26951;SDS011;14507;52.418;13.398;2023-03-07T05:38:19;58.20;;;27.05;;
26951;SDS011;14507;52.418;13.398;2023-03-07T05:40:45;57.55;;;28.27;;
26951;SDS011;14507;52.418;13.398;2023-03-07T05:43:10;56.70;;;26.75;;
26951;SDS011;14507;52.418;13.398;2023-03-07T05:45:36;59.30;;;28.38;;
26951;SDS011;14507;52.418;13.398;2023-03-07T05:48:02;55.83;;;26.35;;
26951;SDS011;14507;52.418;13.398;2023-03-07T05:50:28;60.40;;;27.40;;
26951;SDS011;14507;52.418;13.398;2023-03-07T05:52:54;61.22;;;28.27;;
26951;SDS011;14507;52.418;13.398;2023-03-07T05:55:20;60.20;;;28.10;;
26951;SDS011;14507;52.418;13.398;2023-03-07T05:57:45;60.38;;;26.88;;
26951;SDS011;14507;52.418;13.398;2023-03-07T06:00:11;60.47;;;27.98;;
26951;SDS011;14507;52.418;13.398;2023-03-07T06:02:37;58.28;;;27.10;;
26951;SDS011;14507;52.418;13.398;2023-03-07T06:05:03;56.28;;;27.50;;
26951;SDS011;14507;52.418;13.398;2023-03-07T06:07:29;56.30;;;25.80;;
26951;SDS011;14507;52.418;13.398;2023-03-07T06:09:54;59.30;;;27.05;;
26951;SDS011;14507;52.418;13.398;2023-03-07T06:12:20;55.63;;;26.20;;
26951;SDS011;14507;52.418;13.398;2023-03-07T06:14:46;58.70;;;26.55;;
26951;SDS011;14507;52.418;13.398;2023-03-07T06:17:11;55.85;;;26.20;;
26951;SDS011;14507;52.418;13.398;2023-03-07T06:19:37;52.95;;;25.00;;
26951;SDS011;14507;52.418;13.398;2023-03-07T06:22:02;54.80;;;25.20;;
26951;SDS011;14507;52.418;13.398;2023-03-07T06:24:28;56.28;;;25.02;;
26951;SDS011;14507;52.418;13.398;2023-03-07T06:26:53;51.05;;;25.38;;
26951;SDS011;14507;52.418;13.398;2023-03-07T06:29:19;52.92;;;25.33;;
26951;SDS011;14507;52.418;13.398;2023-03-07T06:31:45;50.90;;;25.23;;
26951;SDS011;14507;52.418;13.398;2023-03-07T06:34:10;54.03;;;24.65;;
26951;SDS011;14507;52.418;13.398;2023-03-07T06:36:36;50.55;;;24.58;;
26951;SDS011;14507;52.418;13.398;2023-03-07T06:39:03;53.17;;;26.75;;
26951;SDS011;14507;52.418;13.398;2023-03-07T06:41:29;54.65;;;25.90;;
26951;SDS011;14507;52.418;13.398;2023-03-07T06:43:54;51.42;;;25.38;;
26951;SDS011;14507;52.418;13.398;2023-03-07T06:46:20;53.65;;;25.67;;
26951;SDS011;14507;52.418;13.398;2023-03-07T06:48:46;52.13;;;24.88;;
26951;SDS011;14507;52.418;13.398;2023-03-07T06:51:12;51.47;;;25.48;;
26951;SDS011;14507;52.418;13.398;2023-03-07T06:53:37;51.03;;;25.17;;
26951;SDS011;14507;52.418;13.398;2023-03-07T06:56:03;51.10;;;23.60;;
26951;SDS011;14507;52.418;13.398;2023-03-07T06:58:29;51.92;;;24.25;;
26951;SDS011;14507;52.418;13.398;2023-03-07T07:00:54;50.55;;;24.38;;
26951;SDS011;14507;52.418;13.398;2023-03-07T07:03:20;50.95;;;23.10;;
26951;SDS011;14507;52.418;13.398;2023-03-07T07:05:46;46.05;;;23.52;;
26951;SDS011;14507;52.418;13.398;2023-03-07T07:08:12;50.22;;;23.67;;
26951;SDS011;14507;52.418;13.398;2023-03-07T07:10:37;55.60;;;24.50;;
26951;SDS011;14507;52.418;13.398;2023-03-07T07:13:03;51.80;;;25.02;;
26951;SDS011;14507;52.418;13.398;2023-03-07T07:15:29;47.55;;;22.17;;
26951;SDS011;14507;52.418;13.398;2023-03-07T07:17:55;49.05;;;23.27;;
26951;SDS011;14507;52.418;13.398;2023-03-07T07:20:21;48.95;;;22.05;;
26951;SDS011;14507;52.418;13.398;2023-03-07T07:22:47;48.35;;;22.23;;
26951;SDS011;14507;52.418;13.398;2023-03-07T07:25:12;46.08;;;21.70;;
26951;SDS011;14507;52.418;13.398;2023-03-07T07:27:38;44.67;;;21.40;;
26951;SDS011;14507;52.418;13.398;2023-03-07T07:30:04;49.58;;;22.63;;
26951;SDS011;14507;52.418;13.398;2023-03-07T07:32:31;46.70;;;22.35;;
26951;SDS011;14507;52.418;13.398;2023-03-07T07:34:56;43.05;;;21.83;;
26951;SDS011;14507;52.418;13.398;2023-03-07T07:37:22;45.90;;;21.73;;
26951;SDS011;14507;52.418;13.398;2023-03-07T07:39:51;47.55;;;22.30;;
26951;SDS011;14507;52.418;13.398;2023-03-07T07:42:16;44.10;;;21.02;;
26951;SDS011;14507;52.418;13.398;2023-03-07T07:44:42;42.92;;;21.08;;
26951;SDS011;14507;52.418;13.398;2023-03-07T07:47:09;42.92;;;20.25;;
26951;SDS011;14507;52.418;13.398;2023-03-07T07:49:35;41.88;;;21.25;;
26951;SDS011;14507;52.418;13.398;2023-03-07T07:52:00;45.72;;;22.23;;
26951;SDS011;14507;52.418;13.398;2023-03-07T07:54:26;42.22;;;20.80;;
26951;SDS011;14507;52.418;13.398;2023-03-07T07:56:52;41.88;;;20.25;;
26951;SDS011;14507;52.418;13.398;2023-03-07T07:59:17;46.28;;;20.13;;
26951;SDS011;14507;52.418;13.398;2023-03-07T08:01:43;42.15;;;19.80;;
26951;SDS011;14507;52.418;13.398;2023-03-07T08:04:09;39.58;;;19.20;;
26951;SDS011;14507;52.418;13.398;2023-03-07T08:06:35;38.22;;;19.65;;
26951;SDS011;14507;52.418;13.398;2023-03-07T08:09:01;42.15;;;20.27;;
26951;SDS011;14507;52.418;13.398;2023-03-07T08:11:27;40.28;;;18.52;;
26951;SDS011;14507;52.418;13.398;2023-03-07T08:13:52;35.30;;;18.50;;
26951;SDS011;14507;52.418;13.398;2023-03-07T08:16:19;39.22;;;20.77;;
26951;SDS011;14507;52.418;13.398;2023-03-07T08:21:13;37.97;;;18.52;;
26951;SDS011;14507;52.418;13.398;2023-03-07T08:23:39;37.67;;;18.95;;
26951;SDS011;14507;52.418;13.398;2023-03-07T08:26:05;37.22;;;17.95;;
26951;SDS011;14507;52.418;13.398;2023-03-07T08:28:33;42.88;;;18.25;;
26951;SDS011;14507;52.418;13.398;2023-03-07T08:31:06;37.05;;;17.23;;
26951;SDS011;14507;52.418;13.398;2023-03-07T08:33:32;39.00;;;18.35;;
26951;SDS011;14507;52.418;13.398;2023-03-07T08:35:58;37.25;;;18.17;;
26951;SDS011;14507;52.418;13.398;2023-03-07T08:38:24;35.65;;;17.42;;
26951;SDS011;14507;52.418;13.398;2023-03-07T08:40:50;37.38;;;16.80;;
26951;SDS011;14507;52.418;13.398;2023-03-07T08:43:16;32.88;;;16.95;;
26951;SDS011;14507;52.418;13.398;2023-03-07T08:45:41;32.65;;;16.55;;
26951;SDS011;14507;52.418;13.398;2023-03-07T08:48:07;35.20;;;17.83;;
26951;SDS011;14507;52.418;13.398;2023-03-07T08:50:34;32.05;;;16.42;;
26951;SDS011;14507;52.418;13.398;2023-03-07T08:53:00;31.83;;;16.15;;
26951;SDS011;14507;52.418;13.398;2023-03-07T08:55:27;31.00;;;16.52;;
26951;SDS011;14507;52.418;13.398;2023-03-07T08:57:52;30.00;;;15.38;;
26951;SDS011;14507;52.418;13.398;2023-03-07T09:00:18;31.67;;;15.50;;
26951;SDS011;14507;52.418;13.398;2023-03-07T09:02:44;28.25;;;14.55;;
26951;SDS011;14507;52.418;13.398;2023-03-07T09:05:10;29.08;;;14.13;;
26951;SDS011;14507;52.418;13.398;2023-03-07T09:07:35;30.33;;;15.23;;
26951;SDS011;14507;52.418;13.398;2023-03-07T09:10:01;30.40;;;15.98;;
26951;SDS011;14507;52.418;13.398;2023-03-07T09:12:28;30.20;;;14.95;;
26951;SDS011;14507;52.418;13.398;2023-03-07T09:14:53;24.38;;;13.75;;
26951;SDS011;14507;52.418;13.398;2023-03-07T09:17:19;24.10;;;13.20;;
26951;SDS011;14507;52.418;13.398;2023-03-07T09:19:45;28.90;;;14.40;;
26951;SDS011;14507;52.418;13.398;2023-03-07T09:22:11;25.15;;;13.15;;
26951;SDS011;14507;52.418;13.398;2023-03-07T09:24:37;24.77;;;13.18;;
26951;SDS011;14507;52.418;13.398;2023-03-07T09:27:02;22.55;;;12.10;;
26951;SDS011;14507;52.418;13.398;2023-03-07T09:29:28;23.60;;;13.00;;
26951;SDS011;14507;52.418;13.398;2023-03-07T09:31:54;23.38;;;12.70;;
26951;SDS011;14507;52.418;13.398;2023-03-07T09:34:19;26.85;;;12.32;;
26951;SDS011;14507;52.418;13.398;2023-03-07T09:36:45;23.13;;;12.52;;
26951;SDS011;14507;52.418;13.398;2023-03-07T09:39:10;23.85;;;12.18;;
26951;SDS011;14507;52.418;13.398;2023-03-07T09:49:49;18.58;;;10.98;;
26951;SDS011;14507;52.418;13.398;2023-03-07T09:52:21;18.42;;;10.43;;
26951;SDS011;14507;52.418;13.398;2023-03-07T09:54:52;20.00;;;10.90;;
26951;SDS011;14507;52.418;13.398;2023-03-07T09:57:27;17.90;;;9.20;;
26951;SDS011;14507;52.418;13.398;2023-03-07T09:59:57;17.90;;;10.18;;
26951;SDS011;14507;52.418;13.398;2023-03-07T10:02:35;17.25;;;10.02;;
26951;SDS011;14507;52.418;13.398;2023-03-07T10:07:36;18.10;;;9.75;;
26951;SDS011;14507;52.418;13.398;2023-03-07T10:10:06;17.08;;;9.38;;
26951;SDS011;14507;52.418;13.398;2023-03-07T10:17:59;18.35;;;10.45;;
26951;SDS011;14507;52.418;13.398;2023-03-07T10:26:41;19.20;;;9.52;;
26951;SDS011;14507;52.418;13.398;2023-03-07T10:29:15;17.65;;;9.45;;
26951;SDS011;14507;52.418;13.398;2023-03-07T10:31:58;17.13;;;9.32;;
26951;SDS011;14507;52.418;13.398;2023-03-07T10:34:39;17.20;;;9.38;;
26951;SDS011;14507;52.418;13.398;2023-03-07T10:37:12;17.23;;;9.73;;
26951;SDS011;14507;52.418;13.398;2023-03-07T10:39:55;17.23;;;9.75;;
26951;SDS011;14507;52.418;13.398;2023-03-07T10:42:22;19.15;;;9.75;;
26951;SDS011;14507;52.418;13.398;2023-03-07T10:44:49;19.70;;;10.70;;
26951;SDS011;14507;52.418;13.398;2023-03-07T10:47:26;18.30;;;10.65;;
26951;SDS011;14507;52.418;13.398;2023-03-07T10:52:48;17.52;;;10.10;;
26951;SDS011;14507;52.418;13.398;2023-03-07T10:58:13;19.88;;;10.95;;
26951;SDS011;14507;52.418;13.398;2023-03-07T11:00:45;16.35;;;9.65;;
26951;SDS011;14507;52.418;13.398;2023-03-07T11:04:08;17.98;;;10.32;;
26951;SDS011;14507;52.418;13.398;2023-03-07T11:11:58;13.90;;;7.75;;
26951;SDS011;14507;52.418;13.398;2023-03-07T11:14:47;15.18;;;7.93;;
26951;SDS011;14507;52.418;13.398;2023-03-07T11:20:10;13.65;;;7.85;;
26951;SDS011;14507;52.418;13.398;2023-03-07T11:22:45;14.23;;;7.25;;
26951;SDS011;14507;52.418;13.398;2023-03-07T11:25:23;14.50;;;7.00;;
26951;SDS011;14507;52.418;13.398;2023-03-07T11:30:27;10.00;;;5.60;;
26951;SDS011;14507;52.418;13.398;2023-03-07T11:41:47;9.52;;;5.38;;
26951;SDS011;14507;52.418;13.398;2023-03-07T11:49:44;8.70;;;5.35;;
26951;SDS011;14507;52.418;13.398;2023-03-07T11:58:06;11.23;;;6.45;;
26951;SDS011;14507;52.418;13.398;2023-03-07T12:00:46;11.27;;;5.70;;
26951;SDS011;14507;52.418;13.398;2023-03-07T12:06:12;9.95;;;5.22;;
26951;SDS011;14507;52.418;13.398;2023-03-07T12:14:25;9.80;;;5.03;;
26951;SDS011;14507;52.418;13.398;2023-03-07T12:20:05;7.13;;;4.15;;
26951;SDS011;14507;52.418;13.398;2023-03-07T12:27:58;7.57;;;3.65;;
26951;SDS011;14507;52.418;13.398;2023-03-07T12:30:47;6.90;;;3.85;;
26951;SDS011;14507;52.418;13.398;2023-03-07T12:33:20;12.40;;;3.47;;
26951;SDS011;14507;52.418;13.398;2023-03-07T12:36:07;6.53;;;3.00;;
26951;SDS011;14507;52.418;13.398;2023-03-07T12:38:57;4.25;;;2.05;;
26951;SDS011;14507;52.418;13.398;2023-03-07T12:41:51;4.45;;;2.15;;
26951;SDS011;14507;52.418;13.398;2023-03-07T12:52:42;5.05;;;2.30;;
26951;SDS011;14507;52.418;13.398;2023-03-07T12:55:30;5.65;;;2.08;;
26951;SDS011;14507;52.418;13.398;2023-03-07T12:58:05;6.00;;;2.13;;
26951;SDS011;14507;52.418;13.398;2023-03-07T13:00:46;4.18;;;2.20;;
26951;SDS011;14507;52.418;13.398;2023-03-07T13:06:25;2.72;;;1.65;;
26951;SDS011;14507;52.418;13.398;2023-03-07T13:08:56;3.97;;;1.73;;
26951;SDS011;14507;52.418;13.398;2023-03-07T13:11:25;7.97;;;2.00;;
26951;SDS011;14507;52.418;13.398;2023-03-07T13:16:39;4.97;;;2.00;;
26951;SDS011;14507;52.418;13.398;2023-03-07T13:24:47;4.88;;;2.10;;
26951;SDS011;14507;52.418;13.398;2023-03-07T13:27:26;4.32;;;2.03;;
26951;SDS011;14507;52.418;13.398;2023-03-07T13:42:57;5.85;;;2.38;;
26951;SDS011;14507;52.418;13.398;2023-03-07T13:48:07;5.75;;;2.63;;
26951;SDS011;14507;52.418;13.398;2023-03-07T13:53:01;3.85;;;2.33;;
26951;SDS011;14507;52.418;13.398;2023-03-07T13:55:39;7.30;;;2.78;;
26951;SDS011;14507;52.418;13.398;2023-03-07T13:58:22;5.40;;;3.03;;
26951;SDS011;14507;52.418;13.398;2023-03-07T14:00:58;7.88;;;3.33;;
26951;SDS011;14507;52.418;13.398;2023-03-07T14:06:01;6.82;;;3.00;;
26951;SDS011;14507;52.418;13.398;2023-03-07T14:08:33;5.60;;;2.65;;
26951;SDS011;14507;52.418;13.398;2023-03-07T14:10:59;5.97;;;2.85;;
26951;SDS011;14507;52.418;13.398;2023-03-07T14:16:09;4.97;;;2.80;;
26951;SDS011;14507;52.418;13.398;2023-03-07T14:24:30;5.95;;;3.22;;
26951;SDS011;14507;52.418;13.398;2023-03-07T14:27:17;8.13;;;3.25;;
26951;SDS011;14507;52.418;13.398;2023-03-07T14:29:47;9.48;;;3.42;;
26951;SDS011;14507;52.418;13.398;2023-03-07T14:32:21;7.88;;;3.10;;
26951;SDS011;14507;52.418;13.398;2023-03-07T14:34:50;6.55;;;3.03;;
26951;SDS011;14507;52.418;13.398;2023-03-07T14:37:27;5.28;;;2.80;;
26951;SDS011;14507;52.418;13.398;2023-03-07T14:45:19;4.28;;;2.25;;
26951;SDS011;14507;52.418;13.398;2023-03-07T14:50:26;5.07;;;2.22;;
26951;SDS011;14507;52.418;13.398;2023-03-07T14:53:36;4.70;;;2.30;;
26951;SDS011;14507;52.418;13.398;2023-03-07T14:55:54;7.38;;;2.10;;
26951;SDS011;14507;52.418;13.398;2023-03-07T14:58:23;4.60;;;2.03;;
26951;SDS011;14507;52.418;13.398;2023-03-07T15:00:58;3.08;;;1.55;;
26951;SDS011;14507;52.418;13.398;2023-03-07T15:03:46;3.78;;;1.80;;
26951;SDS011;14507;52.418;13.398;2023-03-07T15:06:18;7.15;;;2.08;;
26951;SDS011;14507;52.418;13.398;2023-03-07T15:08:46;4.53;;;2.00;;
26951;SDS011;14507;52.418;13.398;2023-03-07T15:16:35;4.70;;;2.28;;
26951;SDS011;14507;52.418;13.398;2023-03-07T15:21:35;4.30;;;2.30;;
26951;SDS011;14507;52.418;13.398;2023-03-07T15:24:04;5.80;;;2.05;;
26951;SDS011;14507;52.418;13.398;2023-03-07T15:26:30;5.15;;;2.20;;
26951;SDS011;14507;52.418;13.398;2023-03-07T15:29:00;3.72;;;1.95;;
26951;SDS011;14507;52.418;13.398;2023-03-07T15:31:30;4.30;;;1.67;;
26951;SDS011;14507;52.418;13.398;2023-03-07T15:34:19;3.22;;;1.73;;
26951;SDS011;14507;52.418;13.398;2023-03-07T15:39:59;3.25;;;1.90;;
26951;SDS011;14507;52.418;13.398;2023-03-07T15:42:26;5.82;;;2.03;;
26951;SDS011;14507;52.418;13.398;2023-03-07T15:44:57;5.53;;;1.92;;
26951;SDS011;14507;52.418;13.398;2023-03-07T15:47:25;3.08;;;1.77;;
26951;SDS011;14507;52.418;13.398;2023-03-07T15:54:53;4.90;;;2.03;;
26951;SDS011;14507;52.418;13.398;2023-03-07T15:57:21;6.22;;;2.20;;
26951;SDS011;14507;52.418;13.398;2023-03-07T15:59:49;5.10;;;2.33;;
26951;SDS011;14507;52.418;13.398;2023-03-07T16:04:57;4.55;;;2.10;;
26951;SDS011;14507;52.418;13.398;2023-03-07T16:07:49;5.57;;;2.10;;
26951;SDS011;14507;52.418;13.398;2023-03-07T16:10:17;5.70;;;2.00;;
26951;SDS011;14507;52.418;13.398;2023-03-07T16:12:43;6.93;;;2.15;;
26951;SDS011;14507;52.418;13.398;2023-03-07T16:15:17;4.85;;;2.30;;
26951;SDS011;14507;52.418;13.398;2023-03-07T16:17:45;4.38;;;2.08;;
26951;SDS011;14507;52.418;13.398;2023-03-07T16:20:16;5.40;;;2.33;;
26951;SDS011;14507;52.418;13.398;2023-03-07T16:22:45;4.28;;;2.20;;
26951;SDS011;14507;52.418;13.398;2023-03-07T16:25:11;5.05;;;2.00;;
26951;SDS011;14507;52.418;13.398;2023-03-07T16:27:38;4.05;;;2.20;;
26951;SDS011;14507;52.418;13.398;2023-03-07T16:30:09;3.50;;;1.98;;
26951;SDS011;14507;52.418;13.398;2023-03-07T16:32:38;7.63;;;2.50;;
26951;SDS011;14507;52.418;13.398;2023-03-07T16:37:39;6.03;;;2.30;;
26951;SDS011;14507;52.418;13.398;2023-03-07T16:40:05;5.55;;;2.17;;
26951;SDS011;14507;52.418;13.398;2023-03-07T16:42:32;6.22;;;2.33;;
26951;SDS011;14507;52.418;13.398;2023-03-07T16:44:58;6.00;;;2.70;;
26951;SDS011;14507;52.418;13.398;2023-03-07T16:47:24;6.10;;;2.50;;
26951;SDS011;14507;52.418;13.398;2023-03-07T16:49:49;5.97;;;2.60;;
26951;SDS011;14507;52.418;13.398;2023-03-07T16:52:15;5.07;;;2.65;;
26951;SDS011;14507;52.418;13.398;2023-03-07T16:54:41;4.93;;;2.40;;
26951;SDS011;14507;52.418;13.398;2023-03-07T16:57:11;4.82;;;2.50;;
26951;SDS011;14507;52.418;13.398;2023-03-07T16:59:41;5.65;;;2.83;;
26951;SDS011;14507;52.418;13.398;2023-03-07T17:02:16;5.93;;;2.75;;
26951;SDS011;14507;52.418;13.398;2023-03-07T17:04:43;7.05;;;2.75;;
26951;SDS011;14507;52.418;13.398;2023-03-07T17:07:20;5.88;;;2.95;;
26951;SDS011;14507;52.418;13.398;2023-03-07T17:09:46;9.37;;;3.20;;